.

webcam MeteoEstarreja  MeteoEstarreja webcam


Visit our other weather sites:

Template documentation
and downloads

And another site



Relatórios METAR próximos

   
LPPR - Francisco Sá Carneiro, Porto
Distância da estação: N 52 km
Actualizado: 22-09-2020 22:30
Mostly Cloudy  
Mostly Cloudy  
   Vento: Sul 18.5 km/h
Vento: Sul 18.5 km/h
Temperatura: 20°C
Ponto de Orvalho: 19°C
Humidade: 94%
Barómetro: 1014 hPa
Clouds: Mostly Cloudy
Visibilidade: Mais de 10 km
Nuvens: Partly Cloudy 800 ft,
Mostly Cloudy 4000 ft
LPPR 222130Z 19010KT 9999 SCT008 BKN040 20/19 Q1014
  

Script developed by  Saratoga-weather.org Adaptado para o template por  Weerstation Leuven

Equipamento utilizado:

Estação
WeatherDuino PRO2

WeatherDuino PRO2

CT2IUB